sensor_id;sensor_type;location;lat;lon;timestamp;P1;durP1;ratioP1;P2;durP2;ratioP2
56860;SDS011;42744;51.094;3.490;2024-02-14T00:01:09;5.47;;;4.87;;
56860;SDS011;42744;51.094;3.490;2024-02-14T00:03:35;6.83;;;4.93;;
56860;SDS011;42744;51.094;3.490;2024-02-14T00:06:03;7.40;;;4.57;;
56860;SDS011;42744;51.094;3.490;2024-02-14T00:08:31;6.43;;;4.47;;
56860;SDS011;42744;51.094;3.490;2024-02-14T00:10:57;6.07;;;4.37;;
56860;SDS011;42744;51.094;3.490;2024-02-14T00:13:23;4.80;;;4.40;;
56860;SDS011;42744;51.094;3.490;2024-02-14T00:15:49;6.00;;;4.90;;
56860;SDS011;42744;51.094;3.490;2024-02-14T00:18:16;7.50;;;4.93;;
56860;SDS011;42744;51.094;3.490;2024-02-14T00:20:42;5.87;;;4.50;;
56860;SDS011;42744;51.094;3.490;2024-02-14T00:23:09;6.93;;;4.80;;
56860;SDS011;42744;51.094;3.490;2024-02-14T00:25:35;5.70;;;4.70;;
56860;SDS011;42744;51.094;3.490;2024-02-14T00:28:01;5.37;;;4.87;;
56860;SDS011;42744;51.094;3.490;2024-02-14T00:30:26;7.07;;;4.70;;
56860;SDS011;42744;51.094;3.490;2024-02-14T00:32:53;7.67;;;4.60;;
56860;SDS011;42744;51.094;3.490;2024-02-14T00:35:18;5.97;;;4.40;;
56860;SDS011;42744;51.094;3.490;2024-02-14T00:37:44;6.60;;;4.53;;
56860;SDS011;42744;51.094;3.490;2024-02-14T00:40:10;6.13;;;4.83;;
56860;SDS011;42744;51.094;3.490;2024-02-14T00:42:37;5.00;;;4.50;;
56860;SDS011;42744;51.094;3.490;2024-02-14T00:45:02;6.87;;;4.57;;
56860;SDS011;42744;51.094;3.490;2024-02-14T00:47:29;6.03;;;4.50;;
56860;SDS011;42744;51.094;3.490;2024-02-14T00:49:57;6.20;;;4.13;;
56860;SDS011;42744;51.094;3.490;2024-02-14T00:52:23;5.70;;;4.30;;
56860;SDS011;42744;51.094;3.490;2024-02-14T00:54:49;6.87;;;4.37;;
56860;SDS011;42744;51.094;3.490;2024-02-14T00:57:15;5.53;;;4.60;;
56860;SDS011;42744;51.094;3.490;2024-02-14T00:59:43;6.50;;;4.63;;
56860;SDS011;42744;51.094;3.490;2024-02-14T01:02:09;5.33;;;4.57;;
56860;SDS011;42744;51.094;3.490;2024-02-14T01:04:35;6.47;;;4.70;;
56860;SDS011;42744;51.094;3.490;2024-02-14T01:07:04;7.53;;;4.40;;
56860;SDS011;42744;51.094;3.490;2024-02-14T01:09:30;7.07;;;4.63;;
56860;SDS011;42744;51.094;3.490;2024-02-14T01:11:58;4.90;;;4.23;;
56860;SDS011;42744;51.094;3.490;2024-02-14T01:14:24;5.13;;;4.40;;
56860;SDS011;42744;51.094;3.490;2024-02-14T01:16:50;10.27;;;4.87;;
56860;SDS011;42744;51.094;3.490;2024-02-14T01:19:16;7.00;;;4.83;;
56860;SDS011;42744;51.094;3.490;2024-02-14T01:21:44;5.67;;;4.60;;
56860;SDS011;42744;51.094;3.490;2024-02-14T01:24:14;4.80;;;4.30;;
56860;SDS011;42744;51.094;3.490;2024-02-14T01:26:40;5.57;;;4.50;;
56860;SDS011;42744;51.094;3.490;2024-02-14T01:29:06;7.20;;;4.97;;
56860;SDS011;42744;51.094;3.490;2024-02-14T01:31:32;8.80;;;5.13;;
56860;SDS011;42744;51.094;3.490;2024-02-14T01:33:59;6.17;;;4.47;;
56860;SDS011;42744;51.094;3.490;2024-02-14T01:36:28;5.87;;;4.90;;
56860;SDS011;42744;51.094;3.490;2024-02-14T01:38:54;5.97;;;4.50;;
56860;SDS011;42744;51.094;3.490;2024-02-14T01:41:20;11.60;;;4.70;;
56860;SDS011;42744;51.094;3.490;2024-02-14T01:43:46;5.77;;;4.23;;
56860;SDS011;42744;51.094;3.490;2024-02-14T01:46:13;10.73;;;4.80;;
56860;SDS011;42744;51.094;3.490;2024-02-14T01:48:39;7.57;;;4.57;;
56860;SDS011;42744;51.094;3.490;2024-02-14T01:51:08;8.50;;;4.90;;
56860;SDS011;42744;51.094;3.490;2024-02-14T01:53:37;7.57;;;5.00;;
56860;SDS011;42744;51.094;3.490;2024-02-14T01:56:03;6.33;;;4.93;;
56860;SDS011;42744;51.094;3.490;2024-02-14T01:58:31;5.63;;;4.63;;
56860;SDS011;42744;51.094;3.490;2024-02-14T02:00:59;5.50;;;4.90;;
56860;SDS011;42744;51.094;3.490;2024-02-14T02:03:26;6.53;;;4.47;;
56860;SDS011;42744;51.094;3.490;2024-02-14T02:05:52;5.23;;;4.73;;
56860;SDS011;42744;51.094;3.490;2024-02-14T02:08:19;8.13;;;4.80;;
56860;SDS011;42744;51.094;3.490;2024-02-14T02:10:45;8.07;;;5.37;;
56860;SDS011;42744;51.094;3.490;2024-02-14T02:13:11;8.73;;;4.87;;
56860;SDS011;42744;51.094;3.490;2024-02-14T02:15:37;6.77;;;4.80;;
56860;SDS011;42744;51.094;3.490;2024-02-14T02:18:04;7.87;;;4.80;;
56860;SDS011;42744;51.094;3.490;2024-02-14T02:20:31;6.90;;;4.90;;
56860;SDS011;42744;51.094;3.490;2024-02-14T02:22:58;6.33;;;4.70;;
56860;SDS011;42744;51.094;3.490;2024-02-14T02:25:25;7.43;;;4.60;;
56860;SDS011;42744;51.094;3.490;2024-02-14T02:27:54;5.20;;;4.30;;
56860;SDS011;42744;51.094;3.490;2024-02-14T02:30:23;7.37;;;4.57;;
56860;SDS011;42744;51.094;3.490;2024-02-14T02:32:50;6.80;;;4.43;;
56860;SDS011;42744;51.094;3.490;2024-02-14T02:35:17;6.57;;;4.40;;
56860;SDS011;42744;51.094;3.490;2024-02-14T02:37:46;7.57;;;4.47;;
56860;SDS011;42744;51.094;3.490;2024-02-14T02:40:13;7.87;;;5.17;;
56860;SDS011;42744;51.094;3.490;2024-02-14T02:42:39;6.53;;;4.83;;
56860;SDS011;42744;51.094;3.490;2024-02-14T02:45:05;6.60;;;4.90;;
56860;SDS011;42744;51.094;3.490;2024-02-14T02:47:32;7.07;;;4.60;;
56860;SDS011;42744;51.094;3.490;2024-02-14T02:49:58;5.10;;;4.60;;
56860;SDS011;42744;51.094;3.490;2024-02-14T02:52:26;5.67;;;4.90;;
56860;SDS011;42744;51.094;3.490;2024-02-14T02:54:53;6.53;;;4.70;;
56860;SDS011;42744;51.094;3.490;2024-02-14T02:57:19;5.67;;;4.80;;
56860;SDS011;42744;51.094;3.490;2024-02-14T02:59:45;6.07;;;4.50;;
56860;SDS011;42744;51.094;3.490;2024-02-14T03:02:14;6.77;;;5.20;;
56860;SDS011;42744;51.094;3.490;2024-02-14T03:04:40;7.27;;;4.57;;
56860;SDS011;42744;51.094;3.490;2024-02-14T03:07:07;6.73;;;4.90;;
56860;SDS011;42744;51.094;3.490;2024-02-14T03:09:34;6.47;;;4.97;;
56860;SDS011;42744;51.094;3.490;2024-02-14T03:12:01;7.80;;;5.20;;
56860;SDS011;42744;51.094;3.490;2024-02-14T03:14:29;8.23;;;5.30;;
56860;SDS011;42744;51.094;3.490;2024-02-14T03:17:00;9.00;;;5.43;;
56860;SDS011;42744;51.094;3.490;2024-02-14T03:19:27;9.43;;;5.33;;
56860;SDS011;42744;51.094;3.490;2024-02-14T03:21:53;8.70;;;5.37;;
56860;SDS011;42744;51.094;3.490;2024-02-14T03:24:20;7.50;;;5.13;;
56860;SDS011;42744;51.094;3.490;2024-02-14T03:26:46;10.70;;;5.80;;
56860;SDS011;42744;51.094;3.490;2024-02-14T03:29:12;7.93;;;5.60;;
56860;SDS011;42744;51.094;3.490;2024-02-14T03:31:38;8.27;;;5.53;;
56860;SDS011;42744;51.094;3.490;2024-02-14T03:34:04;11.63;;;5.23;;
56860;SDS011;42744;51.094;3.490;2024-02-14T03:36:30;8.00;;;5.17;;
56860;SDS011;42744;51.094;3.490;2024-02-14T03:38:58;7.43;;;5.80;;
56860;SDS011;42744;51.094;3.490;2024-02-14T03:41:26;7.27;;;5.20;;
56860;SDS011;42744;51.094;3.490;2024-02-14T03:43:52;10.80;;;6.33;;
56860;SDS011;42744;51.094;3.490;2024-02-14T03:46:20;10.00;;;5.83;;
56860;SDS011;42744;51.094;3.490;2024-02-14T03:48:46;7.97;;;5.50;;
56860;SDS011;42744;51.094;3.490;2024-02-14T03:51:15;7.10;;;4.97;;
56860;SDS011;42744;51.094;3.490;2024-02-14T03:53:41;11.17;;;6.17;;
56860;SDS011;42744;51.094;3.490;2024-02-14T03:56:07;12.20;;;5.77;;
56860;SDS011;42744;51.094;3.490;2024-02-14T03:58:33;8.20;;;5.30;;
56860;SDS011;42744;51.094;3.490;2024-02-14T04:01:03;9.47;;;5.47;;
56860;SDS011;42744;51.094;3.490;2024-02-14T04:03:29;12.20;;;5.63;;
56860;SDS011;42744;51.094;3.490;2024-02-14T04:05:55;7.97;;;5.43;;
56860;SDS011;42744;51.094;3.490;2024-02-14T04:08:22;9.93;;;4.77;;
56860;SDS011;42744;51.094;3.490;2024-02-14T04:10:49;7.27;;;6.30;;
56860;SDS011;42744;51.094;3.490;2024-02-14T04:13:16;8.93;;;5.00;;
56860;SDS011;42744;51.094;3.490;2024-02-14T04:15:42;9.13;;;5.13;;
56860;SDS011;42744;51.094;3.490;2024-02-14T04:18:12;7.17;;;5.27;;
56860;SDS011;42744;51.094;3.490;2024-02-14T04:20:39;10.53;;;4.83;;
56860;SDS011;42744;51.094;3.490;2024-02-14T04:23:06;6.40;;;4.73;;
56860;SDS011;42744;51.094;3.490;2024-02-14T04:25:33;9.47;;;5.63;;
56860;SDS011;42744;51.094;3.490;2024-02-14T04:27:59;9.47;;;5.20;;
56860;SDS011;42744;51.094;3.490;2024-02-14T04:30:25;6.20;;;5.23;;
56860;SDS011;42744;51.094;3.490;2024-02-14T04:32:51;10.67;;;5.67;;
56860;SDS011;42744;51.094;3.490;2024-02-14T04:35:19;7.30;;;5.13;;
56860;SDS011;42744;51.094;3.490;2024-02-14T04:37:45;8.77;;;5.23;;
56860;SDS011;42744;51.094;3.490;2024-02-14T04:40:13;7.63;;;5.17;;
56860;SDS011;42744;51.094;3.490;2024-02-14T04:42:40;9.83;;;5.17;;
56860;SDS011;42744;51.094;3.490;2024-02-14T04:45:06;8.20;;;4.77;;
56860;SDS011;42744;51.094;3.490;2024-02-14T04:47:33;7.20;;;5.20;;
56860;SDS011;42744;51.094;3.490;2024-02-14T04:49:59;6.87;;;4.90;;
56860;SDS011;42744;51.094;3.490;2024-02-14T04:52:26;9.50;;;5.63;;
56860;SDS011;42744;51.094;3.490;2024-02-14T04:55:01;7.33;;;4.80;;
56860;SDS011;42744;51.094;3.490;2024-02-14T04:57:32;10.67;;;6.27;;
56860;SDS011;42744;51.094;3.490;2024-02-14T05:00:03;6.97;;;4.90;;
56860;SDS011;42744;51.094;3.490;2024-02-14T05:02:30;6.60;;;5.30;;
56860;SDS011;42744;51.094;3.490;2024-02-14T05:04:56;9.40;;;5.63;;
56860;SDS011;42744;51.094;3.490;2024-02-14T05:07:22;10.03;;;6.30;;
56860;SDS011;42744;51.094;3.490;2024-02-14T05:09:48;8.53;;;5.60;;
56860;SDS011;42744;51.094;3.490;2024-02-14T05:12:16;9.17;;;5.93;;
56860;SDS011;42744;51.094;3.490;2024-02-14T05:14:42;11.37;;;5.33;;
56860;SDS011;42744;51.094;3.490;2024-02-14T05:17:08;10.37;;;6.30;;
56860;SDS011;42744;51.094;3.490;2024-02-14T05:19:34;8.47;;;5.40;;
56860;SDS011;42744;51.094;3.490;2024-02-14T05:22:00;10.93;;;6.10;;
56860;SDS011;42744;51.094;3.490;2024-02-14T05:24:26;9.37;;;6.67;;
56860;SDS011;42744;51.094;3.490;2024-02-14T05:26:54;10.13;;;5.87;;
56860;SDS011;42744;51.094;3.490;2024-02-14T05:29:20;9.27;;;6.63;;
56860;SDS011;42744;51.094;3.490;2024-02-14T05:31:47;9.17;;;6.43;;
56860;SDS011;42744;51.094;3.490;2024-02-14T05:34:14;11.77;;;6.37;;
56860;SDS011;42744;51.094;3.490;2024-02-14T05:36:40;9.60;;;6.60;;
56860;SDS011;42744;51.094;3.490;2024-02-14T05:39:08;10.07;;;6.37;;
56860;SDS011;42744;51.094;3.490;2024-02-14T05:41:33;10.03;;;5.97;;
56860;SDS011;42744;51.094;3.490;2024-02-14T05:44:01;11.90;;;5.93;;
56860;SDS011;42744;51.094;3.490;2024-02-14T05:46:28;6.93;;;5.27;;
56860;SDS011;42744;51.094;3.490;2024-02-14T05:48:54;11.57;;;5.53;;
56860;SDS011;42744;51.094;3.490;2024-02-14T05:51:20;6.43;;;4.63;;
56860;SDS011;42744;51.094;3.490;2024-02-14T05:53:46;11.10;;;5.37;;
56860;SDS011;42744;51.094;3.490;2024-02-14T05:56:12;11.07;;;5.43;;
56860;SDS011;42744;51.094;3.490;2024-02-14T05:58:38;10.43;;;5.63;;
56860;SDS011;42744;51.094;3.490;2024-02-14T06:01:04;8.27;;;5.40;;
56860;SDS011;42744;51.094;3.490;2024-02-14T06:03:31;7.83;;;5.50;;
56860;SDS011;42744;51.094;3.490;2024-02-14T06:05:57;10.27;;;5.43;;
56860;SDS011;42744;51.094;3.490;2024-02-14T06:08:23;10.17;;;5.40;;
56860;SDS011;42744;51.094;3.490;2024-02-14T06:10:50;7.77;;;5.00;;
56860;SDS011;42744;51.094;3.490;2024-02-14T06:13:16;9.17;;;5.23;;
56860;SDS011;42744;51.094;3.490;2024-02-14T06:15:41;7.20;;;5.00;;
56860;SDS011;42744;51.094;3.490;2024-02-14T06:18:08;8.67;;;5.70;;
56860;SDS011;42744;51.094;3.490;2024-02-14T06:20:34;12.40;;;6.03;;
56860;SDS011;42744;51.094;3.490;2024-02-14T06:22:59;8.30;;;4.93;;
56860;SDS011;42744;51.094;3.490;2024-02-14T06:25:26;10.23;;;5.57;;
56860;SDS011;42744;51.094;3.490;2024-02-14T06:27:52;9.67;;;4.90;;
56860;SDS011;42744;51.094;3.490;2024-02-14T06:30:19;12.07;;;5.53;;
56860;SDS011;42744;51.094;3.490;2024-02-14T06:32:45;7.90;;;5.43;;
56860;SDS011;42744;51.094;3.490;2024-02-14T06:35:11;11.33;;;5.57;;
56860;SDS011;42744;51.094;3.490;2024-02-14T06:37:40;9.27;;;5.70;;
56860;SDS011;42744;51.094;3.490;2024-02-14T06:40:06;8.73;;;5.47;;
56860;SDS011;42744;51.094;3.490;2024-02-14T06:42:34;12.97;;;6.30;;
56860;SDS011;42744;51.094;3.490;2024-02-14T06:45:00;11.23;;;6.20;;
56860;SDS011;42744;51.094;3.490;2024-02-14T06:47:26;16.23;;;6.43;;
56860;SDS011;42744;51.094;3.490;2024-02-14T06:49:58;10.13;;;5.83;;
56860;SDS011;42744;51.094;3.490;2024-02-14T06:52:24;9.67;;;6.00;;
56860;SDS011;42744;51.094;3.490;2024-02-14T06:54:50;10.23;;;6.23;;
56860;SDS011;42744;51.094;3.490;2024-02-14T06:57:16;12.77;;;6.77;;
56860;SDS011;42744;51.094;3.490;2024-02-14T06:59:43;8.87;;;6.50;;
56860;SDS011;42744;51.094;3.490;2024-02-14T07:02:09;15.47;;;6.53;;
56860;SDS011;42744;51.094;3.490;2024-02-14T07:04:35;8.87;;;6.17;;
56860;SDS011;42744;51.094;3.490;2024-02-14T07:07:02;10.60;;;5.73;;
56860;SDS011;42744;51.094;3.490;2024-02-14T07:09:28;10.33;;;6.33;;
56860;SDS011;42744;51.094;3.490;2024-02-14T07:11:54;11.83;;;5.83;;
56860;SDS011;42744;51.094;3.490;2024-02-14T07:14:23;13.13;;;6.57;;
56860;SDS011;42744;51.094;3.490;2024-02-14T07:16:49;11.83;;;6.60;;
56860;SDS011;42744;51.094;3.490;2024-02-14T07:19:16;10.27;;;7.33;;
56860;SDS011;42744;51.094;3.490;2024-02-14T07:21:42;11.40;;;7.07;;
56860;SDS011;42744;51.094;3.490;2024-02-14T07:24:09;11.37;;;7.00;;
56860;SDS011;42744;51.094;3.490;2024-02-14T07:26:35;10.83;;;6.80;;
56860;SDS011;42744;51.094;3.490;2024-02-14T07:29:01;11.43;;;7.17;;
56860;SDS011;42744;51.094;3.490;2024-02-14T07:31:29;14.47;;;7.07;;
56860;SDS011;42744;51.094;3.490;2024-02-14T07:33:59;12.00;;;7.33;;
56860;SDS011;42744;51.094;3.490;2024-02-14T07:36:28;10.30;;;6.60;;
56860;SDS011;42744;51.094;3.490;2024-02-14T07:38:55;11.77;;;7.27;;
56860;SDS011;42744;51.094;3.490;2024-02-14T07:41:21;10.17;;;7.23;;
56860;SDS011;42744;51.094;3.490;2024-02-14T07:43:47;11.50;;;7.07;;
56860;SDS011;42744;51.094;3.490;2024-02-14T07:46:19;15.23;;;7.63;;
56860;SDS011;42744;51.094;3.490;2024-02-14T07:48:47;10.00;;;7.03;;
56860;SDS011;42744;51.094;3.490;2024-02-14T07:51:14;12.00;;;7.03;;
56860;SDS011;42744;51.094;3.490;2024-02-14T07:53:40;15.57;;;7.00;;
56860;SDS011;42744;51.094;3.490;2024-02-14T07:56:06;11.20;;;7.00;;
56860;SDS011;42744;51.094;3.490;2024-02-14T07:58:32;11.93;;;7.80;;
56860;SDS011;42744;51.094;3.490;2024-02-14T08:00:58;14.23;;;7.23;;
56860;SDS011;42744;51.094;3.490;2024-02-14T08:03:24;11.33;;;7.73;;
56860;SDS011;42744;51.094;3.490;2024-02-14T08:05:50;11.77;;;7.80;;
56860;SDS011;42744;51.094;3.490;2024-02-14T08:08:16;15.83;;;8.50;;
56860;SDS011;42744;51.094;3.490;2024-02-14T08:10:43;14.63;;;8.43;;
56860;SDS011;42744;51.094;3.490;2024-02-14T08:13:09;13.03;;;8.10;;
56860;SDS011;42744;51.094;3.490;2024-02-14T08:15:36;13.80;;;8.07;;
56860;SDS011;42744;51.094;3.490;2024-02-14T08:18:02;14.67;;;7.50;;
56860;SDS011;42744;51.094;3.490;2024-02-14T08:20:28;14.27;;;8.07;;
56860;SDS011;42744;51.094;3.490;2024-02-14T08:22:55;11.70;;;8.03;;
56860;SDS011;42744;51.094;3.490;2024-02-14T08:25:21;17.60;;;8.50;;
56860;SDS011;42744;51.094;3.490;2024-02-14T08:27:47;14.47;;;8.30;;
56860;SDS011;42744;51.094;3.490;2024-02-14T08:30:13;15.40;;;7.20;;
56860;SDS011;42744;51.094;3.490;2024-02-14T08:32:39;12.30;;;7.73;;
56860;SDS011;42744;51.094;3.490;2024-02-14T08:35:05;17.43;;;7.20;;
56860;SDS011;42744;51.094;3.490;2024-02-14T08:37:32;14.20;;;7.37;;
56860;SDS011;42744;51.094;3.490;2024-02-14T08:39:58;13.57;;;7.57;;
56860;SDS011;42744;51.094;3.490;2024-02-14T08:42:24;12.90;;;7.27;;
56860;SDS011;42744;51.094;3.490;2024-02-14T08:44:50;12.23;;;8.07;;
56860;SDS011;42744;51.094;3.490;2024-02-14T08:47:16;13.93;;;8.40;;
56860;SDS011;42744;51.094;3.490;2024-02-14T08:49:42;9.90;;;7.07;;
56860;SDS011;42744;51.094;3.490;2024-02-14T08:52:08;12.17;;;8.03;;
56860;SDS011;42744;51.094;3.490;2024-02-14T08:54:36;9.87;;;7.60;;
56860;SDS011;42744;51.094;3.490;2024-02-14T08:57:01;13.83;;;7.63;;
56860;SDS011;42744;51.094;3.490;2024-02-14T08:59:28;10.77;;;7.30;;
56860;SDS011;42744;51.094;3.490;2024-02-14T09:01:54;11.30;;;7.07;;
56860;SDS011;42744;51.094;3.490;2024-02-14T09:04:20;8.17;;;7.30;;
56860;SDS011;42744;51.094;3.490;2024-02-14T09:06:46;9.77;;;6.47;;
56860;SDS011;42744;51.094;3.490;2024-02-14T09:09:12;9.37;;;6.83;;
56860;SDS011;42744;51.094;3.490;2024-02-14T09:11:41;10.30;;;6.43;;
56860;SDS011;42744;51.094;3.490;2024-02-14T09:14:06;9.70;;;6.23;;
56860;SDS011;42744;51.094;3.490;2024-02-14T09:16:33;11.27;;;5.97;;
56860;SDS011;42744;51.094;3.490;2024-02-14T09:18:59;9.67;;;6.60;;
56860;SDS011;42744;51.094;3.490;2024-02-14T09:21:26;7.77;;;6.10;;
56860;SDS011;42744;51.094;3.490;2024-02-14T09:23:56;8.30;;;6.10;;
56860;SDS011;42744;51.094;3.490;2024-02-14T09:26:22;8.40;;;6.10;;
56860;SDS011;42744;51.094;3.490;2024-02-14T09:28:48;6.77;;;6.00;;
56860;SDS011;42744;51.094;3.490;2024-02-14T09:31:18;8.13;;;6.03;;
56860;SDS011;42744;51.094;3.490;2024-02-14T09:33:47;10.47;;;6.23;;
56860;SDS011;42744;51.094;3.490;2024-02-14T09:36:14;8.00;;;6.30;;
56860;SDS011;42744;51.094;3.490;2024-02-14T09:38:41;9.33;;;6.23;;
56860;SDS011;42744;51.094;3.490;2024-02-14T09:43:40;7.67;;;5.93;;
56860;SDS011;42744;51.094;3.490;2024-02-14T09:46:09;8.97;;;6.60;;
56860;SDS011;42744;51.094;3.490;2024-02-14T09:48:39;6.70;;;5.63;;
56860;SDS011;42744;51.094;3.490;2024-02-14T09:51:08;7.70;;;6.07;;
56860;SDS011;42744;51.094;3.490;2024-02-14T09:53:36;7.87;;;5.80;;
56860;SDS011;42744;51.094;3.490;2024-02-14T09:56:02;9.53;;;5.97;;
56860;SDS011;42744;51.094;3.490;2024-02-14T09:58:28;8.17;;;6.37;;
56860;SDS011;42744;51.094;3.490;2024-02-14T10:00:58;5.77;;;5.20;;
56860;SDS011;42744;51.094;3.490;2024-02-14T10:03:25;6.73;;;5.60;;
56860;SDS011;42744;51.094;3.490;2024-02-14T10:05:51;6.87;;;5.07;;
56860;SDS011;42744;51.094;3.490;2024-02-14T10:08:21;7.60;;;5.67;;
56860;SDS011;42744;51.094;3.490;2024-02-14T10:10:51;7.80;;;5.80;;
56860;SDS011;42744;51.094;3.490;2024-02-14T10:13:17;9.43;;;5.77;;
56860;SDS011;42744;51.094;3.490;2024-02-14T10:15:43;5.40;;;4.90;;
56860;SDS011;42744;51.094;3.490;2024-02-14T10:18:10;5.57;;;5.07;;
56860;SDS011;42744;51.094;3.490;2024-02-14T10:20:37;5.70;;;4.97;;
56860;SDS011;42744;51.094;3.490;2024-02-14T10:23:10;5.30;;;4.80;;
56860;SDS011;42744;51.094;3.490;2024-02-14T10:25:37;8.00;;;5.40;;
56860;SDS011;42744;51.094;3.490;2024-02-14T10:28:07;5.10;;;4.27;;
56860;SDS011;42744;51.094;3.490;2024-02-14T10:30:38;5.83;;;5.03;;
56860;SDS011;42744;51.094;3.490;2024-02-14T10:33:06;7.07;;;5.30;;
56860;SDS011;42744;51.094;3.490;2024-02-14T10:35:32;6.23;;;5.23;;
56860;SDS011;42744;51.094;3.490;2024-02-14T10:38:02;6.67;;;5.60;;
56860;SDS011;42744;51.094;3.490;2024-02-14T10:40:29;5.60;;;4.90;;
56860;SDS011;42744;51.094;3.490;2024-02-14T10:42:58;5.37;;;4.83;;
56860;SDS011;42744;51.094;3.490;2024-02-14T10:45:24;5.17;;;4.67;;
56860;SDS011;42744;51.094;3.490;2024-02-14T10:47:52;5.90;;;4.47;;
56860;SDS011;42744;51.094;3.490;2024-02-14T10:50:23;8.07;;;5.50;;
56860;SDS011;42744;51.094;3.490;2024-02-14T10:52:53;5.80;;;4.50;;
56860;SDS011;42744;51.094;3.490;2024-02-14T10:55:24;6.80;;;4.77;;
56860;SDS011;42744;51.094;3.490;2024-02-14T10:57:55;5.27;;;4.47;;
56860;SDS011;42744;51.094;3.490;2024-02-14T11:00:22;5.80;;;4.67;;
56860;SDS011;42744;51.094;3.490;2024-02-14T11:02:49;7.10;;;4.90;;
56860;SDS011;42744;51.094;3.490;2024-02-14T11:05:18;6.27;;;4.63;;
56860;SDS011;42744;51.094;3.490;2024-02-14T11:07:49;6.83;;;4.90;;
56860;SDS011;42744;51.094;3.490;2024-02-14T11:10:19;6.37;;;4.60;;
56860;SDS011;42744;51.094;3.490;2024-02-14T11:12:48;9.20;;;4.90;;
56860;SDS011;42744;51.094;3.490;2024-02-14T11:15:22;7.83;;;5.10;;
56860;SDS011;42744;51.094;3.490;2024-02-14T11:18:03;6.17;;;4.57;;
56860;SDS011;42744;51.094;3.490;2024-02-14T11:20:36;8.73;;;5.17;;
56860;SDS011;42744;51.094;3.490;2024-02-14T11:23:06;4.90;;;4.40;;
56860;SDS011;42744;51.094;3.490;2024-02-14T11:25:39;7.27;;;4.83;;
56860;SDS011;42744;51.094;3.490;2024-02-14T11:28:14;5.83;;;4.93;;
56860;SDS011;42744;51.094;3.490;2024-02-14T11:30:41;7.57;;;4.73;;
56860;SDS011;42744;51.094;3.490;2024-02-14T11:35:43;6.83;;;5.40;;
56860;SDS011;42744;51.094;3.490;2024-02-14T11:38:10;6.33;;;4.60;;
56860;SDS011;42744;51.094;3.490;2024-02-14T11:40:36;9.80;;;4.93;;
56860;SDS011;42744;51.094;3.490;2024-02-14T11:43:18;6.90;;;4.60;;
56860;SDS011;42744;51.094;3.490;2024-02-14T11:45:48;6.27;;;5.00;;
56860;SDS011;42744;51.094;3.490;2024-02-14T11:48:15;7.83;;;5.27;;
56860;SDS011;42744;51.094;3.490;2024-02-14T11:50:42;11.20;;;5.53;;
56860;SDS011;42744;51.094;3.490;2024-02-14T11:53:10;13.63;;;5.73;;
56860;SDS011;42744;51.094;3.490;2024-02-14T11:55:37;7.67;;;4.87;;
56860;SDS011;42744;51.094;3.490;2024-02-14T11:58:10;5.40;;;4.43;;
56860;SDS011;42744;51.094;3.490;2024-02-14T12:00:37;9.80;;;5.20;;
56860;SDS011;42744;51.094;3.490;2024-02-14T12:03:23;7.57;;;4.40;;
56860;SDS011;42744;51.094;3.490;2024-02-14T12:05:53;8.33;;;4.33;;
56860;SDS011;42744;51.094;3.490;2024-02-14T12:08:23;6.87;;;4.70;;
56860;SDS011;42744;51.094;3.490;2024-02-14T12:10:49;6.40;;;4.60;;
56860;SDS011;42744;51.094;3.490;2024-02-14T12:13:15;11.03;;;4.80;;
56860;SDS011;42744;51.094;3.490;2024-02-14T12:15:47;10.23;;;4.83;;
56860;SDS011;42744;51.094;3.490;2024-02-14T12:18:15;8.00;;;4.63;;
56860;SDS011;42744;51.094;3.490;2024-02-14T12:20:43;7.00;;;4.23;;
56860;SDS011;42744;51.094;3.490;2024-02-14T12:23:16;7.10;;;4.30;;
56860;SDS011;42744;51.094;3.490;2024-02-14T12:25:43;6.47;;;4.10;;
56860;SDS011;42744;51.094;3.490;2024-02-14T12:28:18;8.00;;;4.53;;
56860;SDS011;42744;51.094;3.490;2024-02-14T12:30:46;5.80;;;4.00;;
56860;SDS011;42744;51.094;3.490;2024-02-14T12:33:14;7.27;;;4.80;;
56860;SDS011;42744;51.094;3.490;2024-02-14T12:35:44;4.90;;;3.40;;
56860;SDS011;42744;51.094;3.490;2024-02-14T12:38:12;5.67;;;3.47;;
56860;SDS011;42744;51.094;3.490;2024-02-14T12:40:39;4.67;;;3.47;;
56860;SDS011;42744;51.094;3.490;2024-02-14T12:43:12;7.53;;;4.17;;
56860;SDS011;42744;51.094;3.490;2024-02-14T12:45:40;4.97;;;3.37;;
56860;SDS011;42744;51.094;3.490;2024-02-14T12:48:07;3.90;;;3.33;;
56860;SDS011;42744;51.094;3.490;2024-02-14T12:50:34;6.80;;;3.93;;
56860;SDS011;42744;51.094;3.490;2024-02-14T12:53:01;5.87;;;3.90;;
56860;SDS011;42744;51.094;3.490;2024-02-14T12:55:27;9.33;;;3.40;;
56860;SDS011;42744;51.094;3.490;2024-02-14T12:57:54;7.03;;;4.23;;
56860;SDS011;42744;51.094;3.490;2024-02-14T13:00:21;8.37;;;4.00;;
56860;SDS011;42744;51.094;3.490;2024-02-14T13:02:48;6.37;;;3.67;;
56860;SDS011;42744;51.094;3.490;2024-02-14T13:05:15;7.17;;;3.40;;
56860;SDS011;42744;51.094;3.490;2024-02-14T13:07:42;6.77;;;3.47;;
56860;SDS011;42744;51.094;3.490;2024-02-14T13:10:08;6.27;;;3.97;;
56860;SDS011;42744;51.094;3.490;2024-02-14T13:12:35;6.80;;;3.60;;
56860;SDS011;42744;51.094;3.490;2024-02-14T13:15:03;6.43;;;4.17;;
56860;SDS011;42744;51.094;3.490;2024-02-14T13:17:30;6.60;;;4.90;;
56860;SDS011;42744;51.094;3.490;2024-02-14T13:19:56;5.67;;;3.43;;
56860;SDS011;42744;51.094;3.490;2024-02-14T13:22:28;5.43;;;3.50;;
56860;SDS011;42744;51.094;3.490;2024-02-14T13:24:54;5.20;;;3.37;;
56860;SDS011;42744;51.094;3.490;2024-02-14T13:27:21;6.77;;;3.70;;
56860;SDS011;42744;51.094;3.490;2024-02-14T13:29:48;6.03;;;3.77;;
56860;SDS011;42744;51.094;3.490;2024-02-14T13:32:15;5.73;;;3.67;;
56860;SDS011;42744;51.094;3.490;2024-02-14T13:34:41;6.03;;;4.23;;
56860;SDS011;42744;51.094;3.490;2024-02-14T13:37:08;5.10;;;3.20;;
56860;SDS011;42744;51.094;3.490;2024-02-14T13:39:34;3.53;;;3.10;;
56860;SDS011;42744;51.094;3.490;2024-02-14T13:42:00;6.20;;;3.27;;
56860;SDS011;42744;51.094;3.490;2024-02-14T13:44:27;6.03;;;3.73;;
56860;SDS011;42744;51.094;3.490;2024-02-14T13:46:53;7.27;;;3.20;;
56860;SDS011;42744;51.094;3.490;2024-02-14T13:49:19;5.10;;;3.30;;
56860;SDS011;42744;51.094;3.490;2024-02-14T13:51:49;6.63;;;3.57;;
56860;SDS011;42744;51.094;3.490;2024-02-14T13:54:17;4.23;;;3.07;;
56860;SDS011;42744;51.094;3.490;2024-02-14T13:56:43;6.63;;;4.00;;
56860;SDS011;42744;51.094;3.490;2024-02-14T13:59:10;10.27;;;4.13;;
56860;SDS011;42744;51.094;3.490;2024-02-14T14:01:36;10.03;;;5.33;;
56860;SDS011;42744;51.094;3.490;2024-02-14T14:04:03;8.77;;;4.83;;
56860;SDS011;42744;51.094;3.490;2024-02-14T14:06:29;5.77;;;3.40;;
56860;SDS011;42744;51.094;3.490;2024-02-14T14:08:56;8.17;;;3.70;;
56860;SDS011;42744;51.094;3.490;2024-02-14T14:11:22;8.70;;;4.20;;
56860;SDS011;42744;51.094;3.490;2024-02-14T14:13:48;7.70;;;3.50;;
56860;SDS011;42744;51.094;3.490;2024-02-14T14:16:14;5.27;;;3.93;;
56860;SDS011;42744;51.094;3.490;2024-02-14T14:18:40;6.20;;;3.53;;
56860;SDS011;42744;51.094;3.490;2024-02-14T14:21:06;6.63;;;3.73;;
56860;SDS011;42744;51.094;3.490;2024-02-14T14:23:32;8.13;;;4.47;;
56860;SDS011;42744;51.094;3.490;2024-02-14T14:25:59;8.20;;;3.60;;
56860;SDS011;42744;51.094;3.490;2024-02-14T14:28:26;6.07;;;3.53;;
56860;SDS011;42744;51.094;3.490;2024-02-14T14:30:52;9.50;;;4.67;;
56860;SDS011;42744;51.094;3.490;2024-02-14T14:33:22;8.53;;;4.10;;
56860;SDS011;42744;51.094;3.490;2024-02-14T14:35:48;5.90;;;3.73;;
56860;SDS011;42744;51.094;3.490;2024-02-14T14:38:15;8.43;;;4.40;;
56860;SDS011;42744;51.094;3.490;2024-02-14T14:40:42;6.60;;;3.80;;
56860;SDS011;42744;51.094;3.490;2024-02-14T14:43:11;7.27;;;3.77;;
56860;SDS011;42744;51.094;3.490;2024-02-14T14:45:37;8.23;;;4.17;;
56860;SDS011;42744;51.094;3.490;2024-02-14T14:48:04;9.37;;;4.47;;